Time;durP1;ratioP1;P1;durP2;ratioP2;P2;SDS_P1;SDS_P2;PMS_P1;PMS_P2;Temp;Humidity;BMP_temperature;BMP_pressure;BME280_temperature;BME280_humidity;BME280_pressure;Samples;Min_cycle;Max_cycle;Signal;HPM_P1;HPM_P2
2023/06/28 00:01:07;;;;;;;6.22;3.40;;;;;;;15.94;100.00;98620.06;4504374;31;20434;-66
2023/06/28 00:03:34;;;;;;;4.50;3.08;;;;;;;15.96;100.00;98618.91;4501892;31;20172;-66
2023/06/28 00:06:01;;;;;;;6.68;3.33;;;;;;;16.01;100.00;98623.66;4501695;31;20111;-66
2023/06/28 00:08:29;;;;;;;5.28;2.95;;;;;;;16.05;100.00;98629.41;4501619;31;20075;-66
2023/06/28 00:10:56;;;;;;;6.78;3.58;;;;;;;15.99;100.00;98628.31;4501627;31;20155;-66
2023/06/28 00:13:23;;;;;;;5.75;3.00;;;;;;;15.97;100.00;98627.66;4501620;31;20148;-66
2023/06/28 00:15:51;;;;;;;7.30;3.50;;;;;;;16.00;100.00;98622.00;4501498;31;20438;-66
2023/06/28 00:18:19;;;;;;;7.35;2.80;;;;;;;16.01;100.00;98614.91;4501558;31;20155;-66
2023/06/28 00:20:46;;;;;;;5.50;2.70;;;;;;;15.96;100.00;98626.03;4501655;31;20343;-66
2023/06/28 00:23:13;;;;;;;8.15;3.50;;;;;;;15.95;100.00;98621.72;4501773;31;20141;-66
2023/06/28 00:25:59;;;;;;;4.45;2.87;;;;;;;15.99;100.00;98614.25;4501741;31;20403;-66
2023/06/28 00:28:44;;;;;;;4.40;2.55;;;;;;;15.96;100.00;98608.34;4501547;31;20152;-66
2023/06/28 00:31:31;;;;;;;3.90;3.05;;;;;;;15.91;100.00;98601.94;4501495;31;20161;-66
2023/06/28 00:34:16;;;;;;;8.65;2.90;;;;;;;15.85;100.00;98597.34;4501535;31;20528;-66
2023/06/28 00:37:03;;;;;;;4.90;3.05;;;;;;;15.88;100.00;98602.28;4501535;31;20126;-66
2023/06/28 00:39:48;;;;;;;4.30;2.97;;;;;;;15.84;100.00;98606.28;4501454;31;20521;-66
2023/06/28 00:42:34;;;;;;;4.93;3.22;;;;;;;15.88;100.00;98613.69;4501552;31;20193;-66
2023/06/28 00:45:20;;;;;;;6.10;3.60;;;;;;;15.90;100.00;98616.16;4501433;31;20122;-66
2023/06/28 00:48:06;;;;;;;7.07;3.28;;;;;;;15.83;100.00;98626.56;4501357;31;20161;-66
2023/06/28 00:50:55;;;;;;;8.68;3.17;;;;;;;15.84;100.00;98625.59;4501134;31;20095;-66
2023/06/28 00:53:38;;;;;;;6.82;3.40;;;;;;;15.81;100.00;98618.03;4501688;31;20076;-66
2023/06/28 00:56:08;;;;;;;6.07;3.17;;;;;;;15.78;100.00;98610.44;4501388;31;20110;-66
2023/06/28 00:58:36;;;;;;;8.57;3.47;;;;;;;15.74;100.00;98596.72;4501338;31;20096;-66
2023/06/28 01:01:23;;;;;;;6.65;2.78;;;;;;;15.75;100.00;98614.22;4501214;31;20170;-66
2023/06/28 01:04:00;;;;;;;4.30;2.85;;;;;;;15.70;100.00;98616.56;4501294;31;20100;-66
2023/06/28 01:06:31;;;;;;;5.43;2.85;;;;;;;15.66;100.00;98612.63;4501280;31;20111;-66
2023/06/28 01:09:07;;;;;;;6.25;2.55;;;;;;;15.68;100.00;98618.53;4501575;31;20084;-66
2023/06/28 01:11:37;;;;;;;4.25;2.80;;;;;;;15.64;100.00;98617.25;4483493;32;20097;-66
2023/06/28 01:14:09;;;;;;;3.92;2.67;;;;;;;15.68;99.92;98612.44;4496382;31;20154;-66
2023/06/28 01:16:39;;;;;;;4.82;2.47;;;;;;;15.67;99.45;98622.19;4501138;31;20457;-66
2023/06/28 01:19:26;;;;;;;9.88;3.17;;;;;;;15.70;99.62;98624.50;4501070;31;20165;-66
2023/06/28 01:22:13;;;;;;;5.00;3.15;;;;;;;15.71;100.00;98623.47;4501142;31;20114;-66
2023/06/28 01:24:41;;;;;;;5.00;3.00;;;;;;;15.69;100.00;98627.31;4501320;31;20493;-66
2023/06/28 01:27:11;;;;;;;4.93;3.20;;;;;;;15.66;100.00;98625.81;4499839;31;20108;-66
2023/06/28 01:29:40;;;;;;;7.72;3.17;;;;;;;15.65;100.00;98610.97;4501072;31;20083;-66
2023/06/28 01:32:08;;;;;;;4.93;3.00;;;;;;;15.64;100.00;98619.06;4500929;31;20100;-66
2023/06/28 01:34:35;;;;;;;4.10;2.90;;;;;;;15.56;100.00;98618.12;4501120;31;20549;-66
2023/06/28 01:37:05;;;;;;;5.90;2.70;;;;;;;15.64;100.00;98626.97;4501129;31;20091;-66
2023/06/28 01:39:33;;;;;;;4.75;2.60;;;;;;;15.66;100.00;98627.66;4501123;31;20546;-66
2023/06/28 01:42:00;;;;;;;4.15;2.60;;;;;;;15.69;99.65;98630.75;4499764;31;20080;-66
2023/06/28 01:44:29;;;;;;;4.35;2.67;;;;;;;15.67;99.08;98627.47;4501338;31;20164;-66
2023/06/28 01:46:57;;;;;;;5.20;2.37;;;;;;;15.74;96.99;98622.31;4500956;31;20110;-66
2023/06/28 01:49:32;;;;;;;4.20;2.50;;;;;;;15.76;96.04;98621.16;4499960;31;20096;-66
2023/06/28 01:52:18;;;;;;;3.17;2.20;;;;;;;15.76;95.61;98631.72;4500924;31;20110;-66
2023/06/28 01:54:45;;;;;;;7.15;2.25;;;;;;;15.76;95.07;98626.44;4501030;31;20103;-66
2023/06/28 01:57:26;;;;;;;4.55;2.28;;;;;;;15.74;95.31;98625.78;4500914;31;20155;-66
2023/06/28 01:59:54;;;;;;;4.05;1.95;;;;;;;15.73;94.60;98625.94;4499756;31;20590;-66
2023/06/28 02:02:22;;;;;;;4.57;2.58;;;;;;;15.76;93.85;98631.72;4500745;31;20532;-66
2023/06/28 02:04:50;;;;;;;4.18;2.42;;;;;;;15.73;93.62;98613.56;4500982;31;20092;-66
2023/06/28 02:07:21;;;;;;;4.53;2.17;;;;;;;15.74;93.29;98612.56;4500904;31;20106;-66
2023/06/28 02:09:50;;;;;;;5.80;2.05;;;;;;;15.72;93.42;98608.47;4500679;31;20524;-66
2023/06/28 02:12:17;;;;;;;4.82;2.45;;;;;;;15.74;92.77;98602.00;4500784;31;20118;-66
2023/06/28 02:14:45;;;;;;;4.15;2.08;;;;;;;15.74;92.77;98599.34;4500795;31;20497;-66
2023/06/28 02:17:15;;;;;;;5.03;2.25;;;;;;;15.67;93.03;98598.44;4500791;31;20106;-66
2023/06/28 02:19:43;;;;;;;3.58;2.20;;;;;;;15.63;93.06;98593.66;4500814;31;20381;-66
2023/06/28 02:22:22;;;;;;;11.30;2.42;;;;;;;15.66;92.95;98599.41;4501221;31;20071;-66
2023/06/28 02:24:51;;;;;;;4.40;2.35;;;;;;;15.63;93.37;98598.94;4500682;31;20100;-66
2023/06/28 02:27:19;;;;;;;5.62;2.33;;;;;;;15.61;93.32;98596.50;4500923;31;20144;-66
2023/06/28 02:29:46;;;;;;;8.40;2.25;;;;;;;15.61;93.44;98592.03;4500786;31;20480;-66
2023/06/28 02:32:13;;;;;;;5.25;2.20;;;;;;;15.62;93.68;98598.13;4500577;31;20092;-66
2023/06/28 02:34:42;;;;;;;4.10;2.20;;;;;;;15.58;93.79;98595.00;4500805;31;20111;-66
2023/06/28 02:37:10;;;;;;;4.25;2.20;;;;;;;15.58;94.06;98604.75;4500745;31;20143;-66
2023/06/28 02:39:38;;;;;;;5.45;2.47;;;;;;;15.56;94.80;98604.09;4500800;31;20493;-66
2023/06/28 02:42:08;;;;;;;4.35;2.25;;;;;;;15.48;95.40;98601.50;4500531;31;20458;-66
2023/06/28 02:44:35;;;;;;;3.22;2.17;;;;;;;15.47;95.65;98599.84;4500463;31;20482;-66
2023/06/28 02:47:03;;;;;;;8.50;2.45;;;;;;;15.44;95.96;98596.56;4500712;31;20135;-66
2023/06/28 02:49:31;;;;;;;4.45;2.50;;;;;;;15.40;96.31;98595.25;4500181;31;20107;-66
2023/06/28 02:51:58;;;;;;;5.93;2.72;;;;;;;15.32;97.05;98599.75;4500186;31;20092;-66
2023/06/28 02:54:28;;;;;;;5.15;2.70;;;;;;;15.39;97.22;98601.53;4500378;31;20164;-66
2023/06/28 02:56:55;;;;;;;4.60;2.80;;;;;;;15.36;97.63;98604.50;4500324;31;20100;-66
2023/06/28 02:59:23;;;;;;;3.53;2.30;;;;;;;15.32;97.75;98600.59;4500532;31;20175;-66
2023/06/28 03:01:50;;;;;;;6.25;2.45;;;;;;;15.31;97.49;98606.84;4500270;31;20100;-66
2023/06/28 03:04:18;;;;;;;4.50;2.30;;;;;;;15.30;97.63;98604.38;4500097;31;20096;-66
2023/06/28 03:06:49;;;;;;;4.82;2.47;;;;;;;15.26;97.92;98610.00;4500403;31;20155;-66
2023/06/28 03:09:16;;;;;;;4.22;2.37;;;;;;;15.29;97.69;98611.50;4500148;31;20147;-66
2023/06/28 03:11:44;;;;;;;3.75;2.83;;;;;;;15.32;98.05;98608.50;4500243;31;20129;-66
2023/06/28 03:14:11;;;;;;;3.80;2.33;;;;;;;15.21;99.10;98614.16;4500186;31;20096;-66
2023/06/28 03:16:39;;;;;;;7.65;3.25;;;;;;;15.20;99.54;98609.84;4499931;31;20092;-66
2023/06/28 03:19:24;;;;;;;5.15;2.50;;;;;;;15.19;100.00;98610.88;4499954;31;20166;-66
2023/06/28 03:22:10;;;;;;;5.28;2.60;;;;;;;15.19;100.00;98618.78;4499935;31;20532;-66
2023/06/28 03:24:56;;;;;;;5.65;2.80;;;;;;;15.20;100.00;98609.84;4500005;31;20574;-66
2023/06/28 03:27:41;;;;;;;3.70;2.50;;;;;;;15.16;100.00;98619.13;4499751;31;20526;-66
2023/06/28 03:30:27;;;;;;;7.70;3.60;;;;;;;15.17;100.00;98615.47;4499967;31;20118;-66
2023/06/28 03:33:12;;;;;;;4.47;2.83;;;;;;;15.19;100.00;98616.97;4499581;31;20131;-66
2023/06/28 03:35:39;;;;;;;7.85;3.10;;;;;;;15.15;100.00;98613.00;4500628;31;20480;-66
2023/06/28 03:38:23;;;;;;;6.53;2.80;;;;;;;15.12;100.00;98602.78;4502138;31;20114;-66
2023/06/28 03:40:51;;;;;;;4.78;2.03;;;;;;;15.12;100.00;98596.69;4502003;31;20185;-66
2023/06/28 03:43:19;;;;;;;3.22;2.47;;;;;;;15.12;100.00;98604.63;4501895;31;20087;-66
2023/06/28 03:45:50;;;;;;;4.57;2.65;;;;;;;15.14;100.00;98605.25;4502008;31;20140;-66
2023/06/28 03:48:18;;;;;;;4.32;2.53;;;;;;;15.18;100.00;98602.09;4501585;31;20104;-66
2023/06/28 03:50:46;;;;;;;6.30;2.62;;;;;;;15.16;100.00;98608.56;4502120;31;20084;-66
2023/06/28 03:53:14;;;;;;;5.82;2.10;;;;;;;15.31;100.00;98606.03;4500452;31;20505;-66
2023/06/28 03:55:42;;;;;;;6.07;2.15;;;;;;;15.31;100.00;98603.41;4501837;31;20092;-66
2023/06/28 03:58:10;;;;;;;6.78;2.53;;;;;;;15.32;100.00;98603.22;4501657;31;20088;-66
2023/06/28 04:00:37;;;;;;;3.42;2.15;;;;;;;15.36;99.62;98599.22;4501801;31;20095;-66
2023/06/28 04:03:05;;;;;;;3.65;2.30;;;;;;;15.34;99.74;98606.50;4501617;31;20457;-66
2023/06/28 04:05:33;;;;;;;4.90;2.05;;;;;;;15.37;99.01;98603.53;4501945;31;20115;-66
2023/06/28 04:08:02;;;;;;;5.70;2.53;;;;;;;15.38;98.53;98607.81;4501580;31;20165;-66
2023/06/28 04:10:30;;;;;;;4.37;2.10;;;;;;;15.43;98.58;98602.84;4501685;31;20111;-66
2023/06/28 04:12:57;;;;;;;6.22;2.00;;;;;;;15.51;97.81;98609.06;4501474;31;20187;-66
2023/06/28 04:15:24;;;;;;;3.50;2.10;;;;;;;15.52;97.24;98613.34;4501755;31;20089;-66
2023/06/28 04:17:52;;;;;;;3.58;1.80;;;;;;;15.60;96.95;98615.97;4490001;31;20571;-66
2023/06/28 04:20:20;;;;;;;2.83;1.98;;;;;;;15.65;96.79;98618.88;4498924;31;20118;-66
2023/06/28 04:22:47;;;;;;;3.85;2.00;;;;;;;15.69;96.81;98619.38;4501476;31;20134;-66
2023/06/28 04:25:15;;;;;;;4.32;2.62;;;;;;;15.76;97.03;98625.59;4492135;31;20138;-66
2023/06/28 04:27:42;;;;;;;3.35;1.85;;;;;;;15.86;96.85;98631.50;4485469;31;20081;-66
2023/06/28 04:30:10;;;;;;;4.87;1.92;;;;;;;15.83;96.40;98638.97;4495053;31;20095;-66
2023/06/28 04:32:37;;;;;;;9.15;2.58;;;;;;;15.93;95.75;98629.81;4501223;31;20429;-66
2023/06/28 04:35:05;;;;;;;3.87;2.20;;;;;;;15.97;96.10;98627.66;4501565;31;20168;-66
2023/06/28 04:37:32;;;;;;;7.53;2.65;;;;;;;16.01;96.15;98623.66;4501478;31;20131;-66
2023/06/28 04:40:03;;;;;;;3.45;2.10;;;;;;;16.07;96.05;98633.53;4501168;31;20608;-66
2023/06/28 04:42:30;;;;;;;17.20;3.22;;;;;;;16.20;95.41;98632.13;4501499;31;20079;-66
2023/06/28 04:44:59;;;;;;;4.70;2.50;;;;;;;16.20;96.06;98632.13;4501206;31;20100;-66
2023/06/28 04:47:28;;;;;;;5.90;3.03;;;;;;;16.17;96.62;98632.47;4500907;31;20212;-66
2023/06/28 04:49:55;;;;;;;5.43;2.08;;;;;;;16.09;97.24;98633.34;4501128;31;20114;-66
2023/06/28 04:52:23;;;;;;;5.00;2.25;;;;;;;16.10;97.78;98637.66;4501341;31;20151;-66
2023/06/28 04:54:51;;;;;;;4.85;2.58;;;;;;;16.10;97.66;98638.47;4500930;31;20153;-65
2023/06/28 04:57:20;;;;;;;3.70;2.50;;;;;;;16.18;97.57;98637.56;4501175;31;20087;-66
2023/06/28 04:59:48;;;;;;;3.28;2.15;;;;;;;16.22;97.50;98635.41;4500900;31;20115;-65
2023/06/28 05:02:16;;;;;;;4.37;2.60;;;;;;;16.19;97.60;98638.41;4501499;31;20118;-65
2023/06/28 05:04:45;;;;;;;4.68;2.42;;;;;;;16.23;98.84;98642.34;4500925;31;20147;-66
2023/06/28 05:07:12;;;;;;;5.50;3.40;;;;;;;16.27;98.98;98641.78;4501248;31;20114;-65
2023/06/28 05:09:40;;;;;;;4.40;2.70;;;;;;;16.23;99.81;98648.47;4501202;31;20091;-66
2023/06/28 05:12:07;;;;;;;6.68;3.10;;;;;;;16.46;99.34;98650.28;4494768;31;20433;-66
2023/06/28 05:14:35;;;;;;;12.32;3.42;;;;;;;16.49;99.00;98653.38;4485029;31;20112;-66
2023/06/28 05:17:03;;;;;;;5.85;2.90;;;;;;;16.33;99.32;98650.84;4498438;31;20089;-66
2023/06/28 05:19:30;;;;;;;5.97;2.80;;;;;;;16.48;99.65;98657.00;4496619;31;20100;-66
2023/06/28 05:21:58;;;;;;;3.60;2.78;;;;;;;16.65;99.01;98654.22;4484577;31;20132;-66
2023/06/28 05:24:25;;;;;;;6.10;2.85;;;;;;;16.64;98.49;98655.25;4483419;31;20115;-66
2023/06/28 05:26:53;;;;;;;8.18;2.60;;;;;;;16.81;98.62;98656.72;4483178;31;20161;-66
2023/06/28 05:29:20;;;;;;;6.50;3.70;;;;;;;16.71;98.51;98658.78;4486074;31;20092;-66
2023/06/28 05:31:51;;;;;;;6.55;3.17;;;;;;;16.81;98.28;98658.56;4499076;31;20119;-66
2023/06/28 05:34:19;;;;;;;5.87;3.28;;;;;;;16.67;97.40;98661.00;4490626;31;20162;-66
2023/06/28 05:36:46;;;;;;;5.57;2.83;;;;;;;16.58;98.51;98655.94;4494967;31;20107;-66
2023/06/28 05:39:13;;;;;;;6.45;2.78;;;;;;;16.73;99.50;98658.63;4496282;31;20216;-66
2023/06/28 05:41:41;;;;;;;6.55;3.08;;;;;;;16.81;98.33;98648.78;4486912;31;20123;-66
2023/06/28 05:44:08;;;;;;;5.15;2.40;;;;;;;16.85;97.27;98647.44;4484875;31;20116;-66
2023/06/28 05:46:37;;;;;;;4.20;2.47;;;;;;;16.84;96.09;98652.91;4483001;31;20093;-66
2023/06/28 05:49:08;;;;;;;4.00;2.30;;;;;;;16.88;95.43;98648.09;4484721;31;20104;-66
2023/06/28 05:51:36;;;;;;;6.03;3.00;;;;;;;16.86;95.53;98653.53;4487340;31;20126;-66
2023/06/28 05:54:05;;;;;;;4.32;2.50;;;;;;;16.96;96.68;98654.13;4488949;31;20131;-66
2023/06/28 05:56:32;;;;;;;5.82;3.25;;;;;;;16.88;96.39;98646.28;4483396;31;20100;-66
2023/06/28 05:59:00;;;;;;;6.82;2.60;;;;;;;16.81;94.73;98658.56;4481590;31;20556;-66
2023/06/28 06:01:28;;;;;;;3.20;2.70;;;;;;;16.81;94.71;98655.91;4478871;31;20723;-66
2023/06/28 06:03:55;;;;;;;6.70;2.85;;;;;;;16.97;95.18;98657.59;4478442;31;20151;-66
2023/06/28 06:06:23;;;;;;;4.12;2.40;;;;;;;16.97;94.24;98662.88;4477090;31;20514;-64
2023/06/28 06:08:50;;;;;;;7.70;2.65;;;;;;;17.06;93.40;98664.44;4481062;31;20808;-66
2023/06/28 06:11:18;;;;;;;3.40;2.55;;;;;;;17.18;93.60;98663.00;4480830;31;20099;-66
2023/06/28 06:13:45;;;;;;;2.65;2.20;;;;;;;17.08;91.60;98667.75;4480383;31;20100;-66
2023/06/28 06:16:13;;;;;;;4.47;2.62;;;;;;;17.12;91.67;98674.31;4479007;31;20134;-66
2023/06/28 06:18:41;;;;;;;4.55;2.20;;;;;;;17.27;91.96;98676.16;4480861;31;20174;-66
2023/06/28 06:21:08;;;;;;;3.37;2.30;;;;;;;17.22;91.32;98686.47;4482896;31;20096;-66
2023/06/28 06:23:36;;;;;;;3.00;2.20;;;;;;;17.36;91.54;98688.28;4481141;31;20262;-66
2023/06/28 06:26:03;;;;;;;4.40;2.17;;;;;;;17.58;89.23;98688.34;4480587;31;20101;-66
2023/06/28 06:28:31;;;;;;;5.93;1.60;;;;;;;17.84;87.95;98696.66;4481232;31;20088;-66
2023/06/28 06:30:58;;;;;;;3.33;1.75;;;;;;;17.64;84.02;98692.91;4479407;31;20118;-66
2023/06/28 06:33:26;;;;;;;3.65;1.70;;;;;;;17.53;84.30;98700.34;4481164;31;20151;-66
2023/06/28 06:35:54;;;;;;;5.55;1.33;;;;;;;17.54;82.84;98694.03;4483414;31;20093;-66
2023/06/28 06:38:28;;;;;;;1.95;1.30;;;;;;;17.37;79.70;98697.87;4481528;31;20469;-66
2023/06/28 06:40:56;;;;;;;2.45;1.60;;;;;;;17.41;80.63;98708.91;4480918;31;20159;-66
2023/06/28 06:43:23;;;;;;;3.03;1.42;;;;;;;17.34;80.52;98711.50;4482169;31;21283;-66
2023/06/28 06:45:51;;;;;;;3.90;1.27;;;;;;;17.38;80.54;98713.59;4483911;31;20124;-66
2023/06/28 06:48:19;;;;;;;2.10;1.23;;;;;;;17.22;81.18;98705.00;4481745;31;20159;-66
2023/06/28 06:50:46;;;;;;;1.92;1.50;;;;;;;17.24;81.05;98709.09;4482129;31;20104;-66
2023/06/28 06:53:14;;;;;;;1.40;1.10;;;;;;;17.27;80.23;98711.38;4480957;31;20197;-66
2023/06/28 06:55:41;;;;;;;2.40;1.62;;;;;;;17.26;79.87;98715.03;4484309;31;20122;-66
2023/06/28 06:58:08;;;;;;;2.03;0.85;;;;;;;17.33;77.91;98709.84;4479404;31;20112;-66
2023/06/28 07:00:35;;;;;;;5.62;1.20;;;;;;;17.30;76.19;98708.38;4478882;31;20558;-66
2023/06/28 07:03:03;;;;;;;3.25;1.10;;;;;;;17.32;76.55;98710.81;4480175;31;20675;-66
2023/06/28 07:05:30;;;;;;;1.20;0.90;;;;;;;17.37;77.25;98711.94;4482371;31;20153;-68
2023/06/28 07:07:58;;;;;;;2.15;1.20;;;;;;;17.61;77.04;98725.91;4481921;32;20096;-68
2023/06/28 07:10:25;;;;;;;2.25;1.25;;;;;;;17.68;78.42;98724.19;4481706;31;20103;-68
2023/06/28 07:12:53;;;;;;;2.92;0.95;;;;;;;17.39;78.34;98717.03;4475964;31;20192;-68
2023/06/28 07:15:20;;;;;;;4.40;1.33;;;;;;;17.62;77.69;98721.44;4482961;31;20607;-68
2023/06/28 07:17:50;;;;;;;2.10;1.08;;;;;;;17.77;77.72;98732.03;4484587;31;20130;-68
2023/06/28 07:20:18;;;;;;;2.00;0.90;;;;;;;17.56;75.88;98721.16;4480720;31;20474;-68
2023/06/28 07:22:46;;;;;;;2.97;1.20;;;;;;;17.34;78.26;98719.44;4482269;31;20165;-68
2023/06/28 07:25:14;;;;;;;1.00;0.90;;;;;;;17.41;78.55;98715.06;4480968;31;20549;-68
2023/06/28 07:27:42;;;;;;;2.37;1.08;;;;;;;17.32;77.02;98716.12;4477702;31;20083;-68
2023/06/28 07:30:09;;;;;;;2.78;1.00;;;;;;;17.32;77.38;98729.38;4484217;31;20095;-68
2023/06/28 07:32:37;;;;;;;2.97;1.25;;;;;;;17.28;78.53;98730.75;4482538;31;20131;-68
2023/06/28 07:35:05;;;;;;;2.95;1.15;;;;;;;17.40;78.26;98737.25;4480857;31;20141;-68
2023/06/28 07:37:32;;;;;;;5.07;1.20;;;;;;;17.39;79.16;98722.34;4477080;31;20184;-68
2023/06/28 07:40:00;;;;;;;4.12;1.20;;;;;;;17.48;80.39;98731.84;4484723;31;20084;-68
2023/06/28 07:42:27;;;;;;;2.62;1.60;;;;;;;17.56;81.77;98729.13;4481580;31;20127;-68
2023/06/28 07:44:55;;;;;;;4.90;2.37;;;;;;;17.65;81.64;98745.75;4482304;31;20085;-68
2023/06/28 07:47:23;;;;;;;4.80;1.80;;;;;;;17.54;82.37;98731.09;4484936;31;20104;-68
2023/06/28 07:49:50;;;;;;;5.90;1.83;;;;;;;17.43;81.33;98728.94;4483078;31;20115;-68
2023/06/28 07:52:18;;;;;;;4.62;1.65;;;;;;;17.35;80.86;98737.78;4481477;31;20150;-68
2023/06/28 07:54:46;;;;;;;3.45;1.65;;;;;;;17.43;82.50;98728.94;4483898;31;20123;-68
2023/06/28 07:57:13;;;;;;;3.70;2.08;;;;;;;17.44;82.21;98733.22;4482926;31;20111;-68
2023/06/28 07:59:42;;;;;;;2.75;1.40;;;;;;;17.59;82.16;98733.22;4482898;31;20171;-68
2023/06/28 08:02:10;;;;;;;5.60;1.40;;;;;;;17.50;81.52;98731.66;4480147;31;20161;-68
2023/06/28 08:04:37;;;;;;;5.95;1.98;;;;;;;17.54;80.27;98719.69;4482977;31;20160;-68
2023/06/28 08:07:06;;;;;;;2.30;1.40;;;;;;;17.61;79.83;98730.38;4481032;31;20272;-68
2023/06/28 08:09:33;;;;;;;1.98;1.12;;;;;;;17.98;77.82;98726.00;4484051;31;20147;-68
2023/06/28 08:12:01;;;;;;;3.60;1.25;;;;;;;18.04;76.14;98725.25;4481829;31;20100;-68
2023/06/28 08:14:28;;;;;;;1.73;0.88;;;;;;;18.13;75.09;98733.91;4481618;31;20347;-68
2023/06/28 08:16:57;;;;;;;11.45;1.40;;;;;;;18.08;75.54;98729.19;4479437;31;20108;-68
2023/06/28 08:19:25;;;;;;;2.70;1.50;;;;;;;18.22;75.44;98727.47;4482869;31;20139;-68
2023/06/28 08:21:53;;;;;;;2.15;1.12;;;;;;;18.29;74.23;98722.25;4482869;31;20127;-68
2023/06/28 08:24:20;;;;;;;2.05;1.20;;;;;;;18.18;73.72;98724.41;4479574;31;20467;-68
2023/06/28 08:26:48;;;;;;;2.47;1.20;;;;;;;18.18;74.27;98719.09;4482074;31;20146;-68
2023/06/28 08:29:16;;;;;;;2.42;1.10;;;;;;;18.06;73.45;98707.31;4482887;31;20096;-68
2023/06/28 08:31:44;;;;;;;1.87;1.33;;;;;;;17.93;74.21;98710.66;4482351;31;20451;-68
2023/06/28 08:34:12;;;;;;;2.58;1.02;;;;;;;17.84;74.77;98715.19;4483399;31;20108;-68
2023/06/28 08:36:39;;;;;;;1.70;1.40;;;;;;;17.80;75.17;98721.88;4476874;31;20163;-68
2023/06/28 08:39:06;;;;;;;4.07;1.20;;;;;;;17.84;75.60;98714.38;4480300;31;20104;-68
2023/06/28 08:41:35;;;;;;;4.03;1.10;;;;;;;17.92;74.58;98722.25;4480195;31;20092;-68
2023/06/28 08:44:05;;;;;;;3.35;0.90;;;;;;;18.08;73.12;98711.44;4483309;31;20167;-68
2023/06/28 08:46:32;;;;;;;1.92;1.33;;;;;;;18.04;74.65;98699.53;4478681;32;20096;-68
2023/06/28 08:49:00;;;;;;;2.60;0.90;;;;;;;17.98;75.38;98718.84;4480919;31;20758;-68
2023/06/28 08:51:28;;;;;;;1.75;1.42;;;;;;;17.97;75.86;98706.63;4481489;31;20162;-68
2023/06/28 08:53:55;;;;;;;1.73;1.17;;;;;;;17.92;77.01;98706.34;4482062;31;20530;-68
2023/06/28 08:56:23;;;;;;;5.68;1.20;;;;;;;18.01;76.88;98705.22;4481831;31;20627;-68
2023/06/28 08:58:51;;;;;;;3.28;1.42;;;;;;;17.86;78.26;98701.75;4474378;31;20092;-68
2023/06/28 09:01:24;;;;;;;9.75;1.58;;;;;;;17.79;78.34;98703.50;4478682;31;20449;-68
2023/06/28 09:03:52;;;;;;;7.07;1.50;;;;;;;17.88;78.79;98705.03;4481110;31;20100;-68
2023/06/28 09:06:21;;;;;;;5.22;1.30;;;;;;;17.96;77.27;98704.97;4483525;31;20461;-68
2023/06/28 09:08:50;;;;;;;2.47;1.20;;;;;;;18.04;75.81;98704.03;4482262;31;20473;-68
2023/06/28 09:11:18;;;;;;;3.90;1.33;;;;;;;18.08;76.37;98705.31;4478378;32;20174;-67
2023/06/28 09:13:45;;;;;;;4.10;1.20;;;;;;;18.09;76.55;98702.47;4479052;31;20092;-68
2023/06/28 09:16:13;;;;;;;3.50;1.55;;;;;;;18.06;75.06;98697.56;4479220;31;20124;-68
2023/06/28 09:18:40;;;;;;;2.65;1.50;;;;;;;18.20;76.68;98695.03;4482774;31;20088;-68
2023/06/28 09:21:07;;;;;;;1.65;1.20;;;;;;;18.24;74.83;98699.78;4483737;31;20138;-67
2023/06/28 09:23:34;;;;;;;4.00;1.48;;;;;;;18.40;75.30;98692.59;4482623;31;20135;-68
2023/06/28 09:26:02;;;;;;;3.25;1.40;;;;;;;18.45;76.21;98692.81;4482760;31;20526;-68
2023/06/28 09:28:34;;;;;;;3.90;1.80;;;;;;;18.63;76.88;98687.88;4480638;32;20080;-68
2023/06/28 09:31:06;;;;;;;2.42;1.58;;;;;;;18.66;74.96;98685.88;4478795;31;20465;-68
2023/06/28 09:33:33;;;;;;;2.35;1.50;;;;;;;19.03;74.17;98684.75;4484856;31;20092;-66
2023/06/28 09:36:04;;;;;;;4.62;1.37;;;;;;;19.27;72.74;98685.31;4485057;31;20104;-65
2023/06/28 09:38:33;;;;;;;1.52;1.27;;;;;;;19.53;69.84;98691.78;4485307;31;20457;-65
2023/06/28 09:41:02;;;;;;;7.68;1.45;;;;;;;19.48;65.71;98684.41;4485015;31;20089;-65
2023/06/28 09:43:33;;;;;;;2.42;1.20;;;;;;;19.55;64.75;98685.25;4476402;31;20502;-65
2023/06/28 09:46:19;;;;;;;1.40;1.12;;;;;;;19.81;64.64;98681.09;4493218;31;20091;-66
2023/06/28 09:48:50;;;;;;;4.32;1.40;;;;;;;19.78;65.33;98689.47;4484354;31;20079;-65
2023/06/28 09:51:18;;;;;;;2.60;1.25;;;;;;;19.92;65.15;98680.53;4480956;31;20096;-66
2023/06/28 09:53:53;;;;;;;4.35;1.50;;;;;;;20.10;62.55;98676.50;4485132;31;20176;-65
2023/06/28 09:56:32;;;;;;;1.50;1.05;;;;;;;20.25;64.13;98685.09;4483139;31;20089;-65
2023/06/28 09:59:02;;;;;;;1.62;1.20;;;;;;;20.46;61.04;98681.47;4486602;31;20114;-67
2023/06/28 10:01:30;;;;;;;1.95;1.10;;;;;;;20.39;61.48;98681.47;4476619;31;20131;-66
2023/06/28 10:03:58;;;;;;;2.17;1.27;;;;;;;20.38;61.79;98685.13;4485963;31;20221;-66
2023/06/28 10:06:27;;;;;;;2.00;1.00;;;;;;;20.10;63.01;98687.94;4480758;31;20142;-66
2023/06/28 10:08:55;;;;;;;3.72;1.10;;;;;;;20.15;62.21;98684.66;4477954;31;20447;-66
2023/06/28 10:11:23;;;;;;;3.53;0.90;;;;;;;20.41;61.52;98693.72;4472382;31;20100;-65
2023/06/28 10:13:51;;;;;;;1.10;1.00;;;;;;;20.23;59.88;98687.16;4479532;31;20127;-65
2023/06/28 10:16:22;;;;;;;0.80;0.80;;;;;;;20.26;59.53;98686.75;4473698;31;20127;-66
2023/06/28 10:18:50;;;;;;;3.55;1.23;;;;;;;20.29;60.04;98689.00;4476851;31;20088;-65
2023/06/28 10:21:17;;;;;;;2.05;1.12;;;;;;;20.27;58.41;98691.03;4477084;31;20123;-66
2023/06/28 10:23:45;;;;;;;1.85;1.02;;;;;;;20.27;57.72;98687.56;4472705;31;20127;-65
2023/06/28 10:26:13;;;;;;;1.48;1.05;;;;;;;20.26;56.19;98681.44;4483265;31;20160;-65
2023/06/28 10:28:42;;;;;;;2.75;0.98;;;;;;;20.09;57.97;98688.97;4487806;31;20158;-66
2023/06/28 10:31:09;;;;;;;2.33;1.33;;;;;;;20.10;58.51;98674.63;4478530;31;20406;-66
2023/06/28 10:33:38;;;;;;;6.87;1.35;;;;;;;19.74;58.06;98677.56;4473912;31;20449;-65
2023/06/28 10:36:06;;;;;;;3.58;1.27;;;;;;;19.77;59.37;98666.53;4483906;31;20122;-66
2023/06/28 10:38:43;;;;;;;2.50;0.90;;;;;;;20.40;56.26;98671.62;4474777;31;20140;-67
2023/06/28 10:41:16;;;;;;;2.08;0.98;;;;;;;20.71;54.06;98665.75;4479292;31;20145;-66
2023/06/28 10:43:44;;;;;;;2.50;0.73;;;;;;;20.23;55.43;98668.53;4490919;31;20076;-65
2023/06/28 10:46:22;;;;;;;1.65;1.00;;;;;;;20.20;56.93;98671.59;4483481;31;20124;-65
2023/06/28 10:48:59;;;;;;;4.32;0.85;;;;;;;20.77;57.93;98655.28;4487907;31;20125;-65
2023/06/28 10:51:30;;;;;;;1.30;0.75;;;;;;;21.21;54.80;98657.28;4486986;31;20100;-65
2023/06/28 10:54:24;;;;;;;3.03;1.10;;;;;;;21.24;54.54;98650.69;4481503;31;20449;-66
2023/06/28 10:56:55;;;;;;;3.05;0.95;;;;;;;21.50;55.47;98659.66;4482622;31;20103;-66
2023/06/28 10:59:22;;;;;;;2.85;1.05;;;;;;;21.49;53.74;98663.34;4484618;31;20492;-65
2023/06/28 11:01:49;;;;;;;2.28;0.80;;;;;;;21.56;53.18;98649.00;4478892;31;20461;-64
2023/06/28 11:04:18;;;;;;;3.08;1.00;;;;;;;21.85;51.59;98651.31;4484668;31;20151;-65
2023/06/28 11:06:45;;;;;;;0.77;0.65;;;;;;;21.74;52.07;98639.47;4480229;32;20088;-62
2023/06/28 11:09:14;;;;;;;3.30;0.88;;;;;;;21.77;50.31;98649.69;4486187;31;20123;-65
2023/06/28 11:11:54;;;;;;;2.62;1.10;;;;;;;21.83;50.21;98648.84;4481876;31;20101;-65
2023/06/28 11:14:30;;;;;;;1.35;0.82;;;;;;;21.86;50.95;98666.28;4482472;31;20152;-65
2023/06/28 11:17:07;;;;;;;2.28;1.00;;;;;;;22.14;50.47;98647.25;4483140;31;20100;-65
2023/06/28 11:19:34;;;;;;;4.85;1.00;;;;;;;22.37;47.34;98644.03;4470976;32;20111;-67
2023/06/28 11:22:03;;;;;;;4.05;0.88;;;;;;;22.50;49.42;98651.13;4480911;31;20807;-66
2023/06/28 11:24:33;;;;;;;1.05;0.90;;;;;;;22.30;49.78;98661.91;4484201;31;20084;-67
2023/06/28 11:27:13;;;;;;;4.22;0.90;;;;;;;22.23;47.42;98647.81;4484003;31;20503;-64
2023/06/28 11:29:57;;;;;;;5.68;1.00;;;;;;;22.42;46.87;98652.22;4483407;31;20464;-65
2023/06/28 11:32:27;;;;;;;1.65;0.98;;;;;;;22.46;46.60;98649.94;4487982;31;20160;-66
2023/06/28 11:34:57;;;;;;;4.72;1.30;;;;;;;22.71;48.94;98655.28;4481993;31;20469;-65
2023/06/28 11:37:26;;;;;;;2.08;0.90;;;;;;;22.98;48.78;98652.34;4480982;32;20127;-66
2023/06/28 11:39:54;;;;;;;3.03;1.12;;;;;;;22.68;45.77;98650.38;4481824;31;20157;-65
2023/06/28 11:42:21;;;;;;;1.77;1.00;;;;;;;22.41;46.39;98641.78;4481490;31;20114;-66
2023/06/28 11:44:50;;;;;;;2.70;1.00;;;;;;;22.71;46.10;98633.09;4482029;32;20212;-66